Terminal Aerodrome Forecast
Issued by NWS

Home | Current Version | Previous Version | Graphics & Text | Print | Product List | Glossary On
Versions: 1 2 3 4 5 6 7 8 9 10 11 12 13 14 15 16 17 18 19 20 21 22 23 24 25
000
FTUS43 KABR 270318 AAA
TAFATY
TAF AMD
KATY 270318Z 2703/2724 10009KT P6SM VCTS BKN100CB OVC250
     FM270600 14005KT P6SM SCT100 BKN250
     FM270800 11004KT P6SM BKN090
     FM271200 06004KT P6SM BKN020
     FM271400 05005KT P6SM BKN015
     FM271500 05006KT 6SM SHRA VCTS BKN015CB
     FM271700 03008KT P6SM SHRA VCTS BKN040CB=

USA.gov is the U.S. government's official web portal to all federal, state and local government web resources and services.